Time;durP1;ratioP1;P1;durP2;ratioP2;P2;SDS_P1;SDS_P2;PMS_P1;PMS_P2;Temp;Humidity;BMP_temperature;BMP_pressure;BME280_temperature;BME280_humidity;BME280_pressure;Samples;Min_cycle;Max_cycle;Signal;HPM_P1;HPM_P2
2021/01/10 00:00:16;;;;;;;27.15;15.57;;;;;;;1.66;83.51;102142.88;4992305;28;20800;-52
2021/01/10 00:02:43;;;;;;;20.95;7.82;;;;;;;1.65;83.43;102150.22;4972928;28;20054;-52
2021/01/10 00:05:12;;;;;;;23.88;11.68;;;;;;;1.64;83.63;102143.09;4984163;28;20105;-53
2021/01/10 00:07:38;;;;;;;16.70;8.05;;;;;;;1.64;83.70;102140.38;4991243;28;20046;-52
2021/01/10 00:10:09;;;;;;;21.83;10.55;;;;;;;1.62;83.79;102144.44;4999998;28;20128;-51
2021/01/10 00:12:36;;;;;;;14.50;6.55;;;;;;;1.62;83.75;102141.69;5003227;28;20039;-54
2021/01/10 00:15:05;;;;;;;19.75;9.30;;;;;;;1.61;83.63;102149.09;5004183;28;20101;-50
2021/01/10 00:17:32;;;;;;;15.40;7.68;;;;;;;1.61;83.84;102138.16;5001467;28;20038;-54
2021/01/10 00:19:59;;;;;;;17.02;9.00;;;;;;;1.60;83.98;102135.66;4993192;28;20053;-50
2021/01/10 00:22:25;;;;;;;87.82;37.90;;;;;;;1.63;83.89;102140.63;4991425;28;20050;-51
2021/01/10 00:24:52;;;;;;;33.45;15.45;;;;;;;1.62;83.80;102141.69;4990622;28;20061;-50
2021/01/10 00:27:18;;;;;;;90.53;37.63;;;;;;;1.62;84.19;102141.69;4995873;28;20047;-48
2021/01/10 00:29:47;;;;;;;30.05;13.75;;;;;;;1.61;84.00;102132.72;4991188;28;20077;-47
2021/01/10 00:32:15;;;;;;;28.42;12.23;;;;;;;1.61;84.33;102138.16;4993877;28;20157;-50
2021/01/10 00:34:43;;;;;;;30.23;13.07;;;;;;;1.61;84.48;102142.78;5010699;28;20045;-49
2021/01/10 00:37:17;;;;;;;23.08;10.13;;;;;;;1.59;84.59;102134.03;4992438;28;20054;-49
2021/01/10 00:39:45;;;;;;;18.45;8.63;;;;;;;1.59;84.51;102136.78;4992067;28;20101;-52
2021/01/10 00:42:14;;;;;;;23.60;9.43;;;;;;;1.58;84.85;102125.03;4991593;28;20046;-51
2021/01/10 00:44:42;;;;;;;23.67;10.00;;;;;;;1.57;84.77;102131.53;4991852;28;20093;-49
2021/01/10 00:47:09;;;;;;;20.17;9.75;;;;;;;1.57;85.00;102131.53;4991983;28;20093;-48
2021/01/10 00:49:38;;;;;;;25.98;10.60;;;;;;;1.57;84.87;102134.28;4990482;28;20074;-48
2021/01/10 00:52:05;;;;;;;23.80;13.02;;;;;;;1.57;85.09;102128.81;4974280;28;20046;-50
2021/01/10 00:54:32;;;;;;;23.15;11.13;;;;;;;1.56;85.36;102127.16;4999126;28;20046;-50
2021/01/10 00:56:59;;;;;;;27.77;12.50;;;;;;;1.58;85.50;102133.22;4998938;28;20049;-51
2021/01/10 00:59:26;;;;;;;24.50;11.10;;;;;;;1.59;85.18;102126.66;5001237;28;20141;-48
2021/01/10 01:01:52;;;;;;;23.85;11.38;;;;;;;1.58;85.38;102127.75;5003354;28;20101;-49
2021/01/10 01:04:19;;;;;;;22.50;11.70;;;;;;;1.59;85.39;102123.13;4991215;28;20057;-48
2021/01/10 01:06:46;;;;;;;23.42;12.25;;;;;;;1.60;85.61;102131.03;4991982;28;20046;-47
2021/01/10 01:09:13;;;;;;;18.75;10.73;;;;;;;1.60;85.74;102111.94;4991534;28;20057;-50
2021/01/10 01:11:40;;;;;;;22.23;10.82;;;;;;;1.62;85.64;102109.78;4985139;28;20042;-49
2021/01/10 01:14:08;;;;;;;26.67;12.95;;;;;;;1.64;85.86;102123.19;4990000;28;20082;-51
2021/01/10 01:16:38;;;;;;;24.52;11.50;;;;;;;1.64;85.71;102115.00;4990068;28;20050;-49
2021/01/10 01:19:06;;;;;;;21.55;10.95;;;;;;;1.65;85.95;102112.00;4991766;28;20050;-49
2021/01/10 01:21:32;;;;;;;30.17;14.50;;;;;;;1.67;85.83;102103.56;4990951;28;20074;-46
2021/01/10 01:23:59;;;;;;;18.30;11.10;;;;;;;1.67;86.02;102109.84;4989944;28;20132;-48
2021/01/10 01:26:25;;;;;;;28.73;12.77;;;;;;;1.69;85.82;102113.16;4973666;28;20120;-50
2021/01/10 01:28:52;;;;;;;22.70;11.45;;;;;;;1.69;86.24;102113.16;4990176;28;20049;-47
2021/01/10 01:31:21;;;;;;;16.90;9.48;;;;;;;1.71;86.16;102104.72;4990180;28;20097;-47
2021/01/10 01:33:50;;;;;;;22.10;10.52;;;;;;;1.71;86.60;102119.19;4990763;28;20046;-48
2021/01/10 01:36:24;;;;;;;20.27;9.77;;;;;;;1.74;86.33;102118.69;4991029;28;20099;-51
2021/01/10 01:38:52;;;;;;;18.00;10.63;;;;;;;1.74;86.33;102115.97;4990827;28;20053;-50
2021/01/10 01:41:19;;;;;;;21.70;11.52;;;;;;;1.75;86.17;102112.13;4973598;28;20113;-48
2021/01/10 01:43:50;;;;;;;23.02;11.15;;;;;;;1.75;86.46;102108.56;4989711;28;20388;-51
2021/01/10 01:46:28;;;;;;;21.33;10.05;;;;;;;1.76;86.66;102111.06;4991448;28;20042;-49
2021/01/10 01:48:57;;;;;;;17.48;9.85;;;;;;;1.76;86.61;102113.78;5013921;28;20038;-52
2021/01/10 01:51:25;;;;;;;16.75;10.27;;;;;;;1.76;86.37;102111.06;5013842;28;20491;-53
2021/01/10 01:53:52;;;;;;;22.10;9.80;;;;;;;1.78;86.75;102114.34;5013768;28;20050;-52
2021/01/10 01:56:19;;;;;;;22.38;11.60;;;;;;;1.80;86.31;102116.84;5013908;28;20056;-53
2021/01/10 01:58:56;;;;;;;15.55;9.73;;;;;;;1.80;87.01;102114.13;5012598;28;20510;-48
2021/01/10 02:01:24;;;;;;;19.60;10.88;;;;;;;1.80;86.56;102114.94;4986968;28;20046;-48
2021/01/10 02:03:59;;;;;;;15.82;10.02;;;;;;;1.81;87.29;102110.28;4994706;28;20068;-50
2021/01/10 02:06:35;;;;;;;18.50;9.68;;;;;;;1.81;87.09;102105.66;4994593;28;20093;-50
2021/01/10 02:09:05;;;;;;;26.92;11.02;;;;;;;1.82;86.85;102111.97;4994539;28;20046;-47
2021/01/10 02:11:34;;;;;;;20.75;11.52;;;;;;;1.83;86.99;102113.59;4975162;28;20047;-48
2021/01/10 02:14:12;;;;;;;17.02;10.55;;;;;;;1.84;87.50;102109.78;4979765;28;20129;-51
2021/01/10 02:16:39;;;;;;;19.45;9.50;;;;;;;1.84;87.15;102105.16;4976745;28;20038;-50
2021/01/10 02:19:18;;;;;;;20.15;10.75;;;;;;;1.84;87.39;102110.63;4994085;28;20069;-51
2021/01/10 02:21:46;;;;;;;18.67;9.32;;;;;;;1.85;87.33;102108.72;4994365;28;20046;-49
2021/01/10 02:24:12;;;;;;;16.88;9.77;;;;;;;1.84;87.48;102110.63;4994047;28;20082;-48
2021/01/10 02:26:39;;;;;;;18.10;10.05;;;;;;;1.87;87.36;102116.66;4994260;28;20042;-47
2021/01/10 02:29:07;;;;;;;19.33;12.45;;;;;;;1.85;87.33;102100.53;4993600;28;20580;-49
2021/01/10 02:31:37;;;;;;;14.35;10.15;;;;;;;1.85;87.97;102111.47;4992765;28;20077;-47
2021/01/10 02:34:07;;;;;;;19.27;9.40;;;;;;;1.85;87.30;102106.78;4992762;28;20399;-49
2021/01/10 02:36:39;;;;;;;20.65;11.13;;;;;;;1.85;87.95;102117.72;4993779;28;20101;-52
2021/01/10 02:39:09;;;;;;;15.13;9.15;;;;;;;1.86;87.72;102115.81;4993224;28;20436;-50
2021/01/10 02:41:59;;;;;;;21.13;10.35;;;;;;;1.85;87.96;102106.78;4976664;28;20044;-51
2021/01/10 02:44:39;;;;;;;17.45;9.52;;;;;;;1.86;87.79;102102.16;4994003;28;20047;-50
2021/01/10 02:47:07;;;;;;;16.02;9.85;;;;;;;1.87;87.83;102117.47;4994120;28;20043;-47
2021/01/10 02:49:34;;;;;;;18.40;9.75;;;;;;;1.88;87.75;102107.38;4993462;28;20121;-50
2021/01/10 02:52:01;;;;;;;18.30;9.85;;;;;;;1.88;87.54;102099.19;4992726;28;20141;-50
2021/01/10 02:54:28;;;;;;;20.00;9.95;;;;;;;1.89;87.87;102095.38;5010317;28;20042;-49
2021/01/10 02:57:17;;;;;;;16.45;9.30;;;;;;;1.92;88.31;102097.59;4987634;28;20488;-50
2021/01/10 02:59:48;;;;;;;15.90;9.38;;;;;;;1.91;88.19;102094.03;4985939;28;20408;-48
2021/01/10 03:02:17;;;;;;;19.08;9.60;;;;;;;1.94;87.70;102088.06;4997260;28;20038;-50
2021/01/10 03:04:44;;;;;;;18.38;9.20;;;;;;;1.95;87.71;102084.25;4993128;28;20105;-51
2021/01/10 03:07:11;;;;;;;19.23;9.30;;;;;;;1.97;87.87;102070.34;4993497;28;20066;-47
2021/01/10 03:09:37;;;;;;;14.07;9.05;;;;;;;1.96;87.47;102085.09;4993775;28;20073;-49
2021/01/10 03:12:26;;;;;;;15.80;9.35;;;;;;;1.98;88.13;102088.38;4993607;28;20061;-46
2021/01/10 03:14:54;;;;;;;17.65;9.82;;;;;;;1.99;87.48;102088.13;4999890;28;20038;-48
2021/01/10 03:17:42;;;;;;;17.77;10.13;;;;;;;1.99;88.12;102088.13;4993152;28;20066;-50
2021/01/10 03:20:11;;;;;;;15.18;8.88;;;;;;;2.00;87.86;102087.06;4993365;28;20439;-49
2021/01/10 03:22:38;;;;;;;25.75;11.38;;;;;;;2.00;87.94;102083.50;4992952;28;20542;-48
2021/01/10 03:25:07;;;;;;;15.75;9.35;;;;;;;2.01;87.97;102082.41;4992841;28;20069;-52
2021/01/10 03:27:33;;;;;;;18.52;10.32;;;;;;;2.00;88.05;102075.28;4992192;28;20554;-51
2021/01/10 03:30:06;;;;;;;15.80;10.40;;;;;;;1.98;88.29;102078.28;4992222;28;20046;-51
2021/01/10 03:32:33;;;;;;;18.48;9.63;;;;;;;2.00;87.63;102083.50;4982925;28;20047;-51
2021/01/10 03:35:00;;;;;;;16.48;9.98;;;;;;;2.00;87.63;102075.28;4992906;28;20057;-51
2021/01/10 03:37:26;;;;;;;16.58;10.25;;;;;;;1.98;87.86;102078.28;4991039;28;20124;-49
2021/01/10 03:39:53;;;;;;;19.65;10.80;;;;;;;1.98;88.13;102072.00;4992722;28;20046;-50
2021/01/10 03:42:21;;;;;;;17.02;10.13;;;;;;;1.99;88.27;102070.91;4992547;28;20084;-47
2021/01/10 03:44:48;;;;;;;18.70;10.75;;;;;;;1.99;87.93;102082.66;4992202;28;20046;-47
2021/01/10 03:47:15;;;;;;;20.55;9.77;;;;;;;2.00;88.33;102083.50;4992698;28;20054;-48
2021/01/10 03:49:41;;;;;;;19.75;11.35;;;;;;;1.99;88.01;102079.09;4993039;28;20496;-48
2021/01/10 03:52:08;;;;;;;18.92;9.73;;;;;;;1.99;88.32;102076.38;4991683;28;20112;-49
2021/01/10 03:54:34;;;;;;;17.77;9.52;;;;;;;1.99;88.50;102073.63;4990695;28;20034;-50
2021/01/10 03:57:01;;;;;;;19.17;10.48;;;;;;;2.00;88.33;102065.19;4989126;28;20132;-47
2021/01/10 03:59:27;;;;;;;15.68;9.60;;;;;;;2.00;88.22;102065.19;4972424;28;20047;-48
2021/01/10 04:01:54;;;;;;;17.58;10.13;;;;;;;2.02;88.35;102073.13;4976642;28;20133;-48
2021/01/10 04:04:20;;;;;;;16.67;10.18;;;;;;;2.01;88.57;102077.78;4972811;28;20077;-47
2021/01/10 04:06:47;;;;;;;28.90;11.90;;;;;;;2.01;88.07;102075.06;4972501;28;20078;-49
2021/01/10 04:09:13;;;;;;;19.38;11.02;;;;;;;1.99;88.27;102069.00;4973652;28;20137;-50
2021/01/10 04:11:40;;;;;;;14.23;8.88;;;;;;;2.01;88.37;102071.50;4986534;28;20074;-49
2021/01/10 04:14:06;;;;;;;22.30;11.65;;;;;;;2.00;88.32;102064.38;4970711;28;20123;-48
2021/01/10 04:16:32;;;;;;;15.02;9.68;;;;;;;2.02;88.47;102067.66;4972758;28;20094;-48
2021/01/10 04:19:01;;;;;;;16.63;9.70;;;;;;;2.04;88.54;102062.78;4986274;28;20049;-48
2021/01/10 04:21:36;;;;;;;16.60;10.20;;;;;;;2.04;88.66;102065.53;4972756;28;20051;-48
2021/01/10 04:24:04;;;;;;;17.98;9.75;;;;;;;2.07;88.56;102067.72;4972704;28;20038;-49
2021/01/10 04:26:37;;;;;;;22.10;11.00;;;;;;;2.08;88.46;102055.72;4971877;28;20051;-50
2021/01/10 04:29:07;;;;;;;13.55;9.18;;;;;;;2.11;88.11;102066.97;4972518;28;20142;-46
2021/01/10 04:31:36;;;;;;;17.23;9.30;;;;;;;2.12;88.37;102063.13;4972429;28;20042;-47
2021/01/10 04:34:03;;;;;;;16.23;9.90;;;;;;;2.15;88.55;102064.53;4972226;28;20098;-48
2021/01/10 04:36:30;;;;;;;15.23;9.82;;;;;;;2.16;88.37;102063.47;4990775;28;20108;-48
2021/01/10 04:38:57;;;;;;;16.42;9.68;;;;;;;2.21;88.10;102066.25;4981797;28;20082;-52
2021/01/10 04:41:25;;;;;;;18.77;9.65;;;;;;;2.22;88.44;102056.97;4972808;28;20043;-47
2021/01/10 04:43:53;;;;;;;13.05;9.48;;;;;;;2.24;88.80;102049.34;4972247;28;20126;-48
2021/01/10 04:46:21;;;;;;;17.85;10.13;;;;;;;2.26;88.43;102055.34;4972690;28;20094;-48
2021/01/10 04:48:52;;;;;;;15.82;10.25;;;;;;;2.26;88.46;102048.00;4972437;28;20396;-47
2021/01/10 04:51:18;;;;;;;18.92;9.77;;;;;;;2.29;88.71;102049.38;4956596;28;20039;-47
2021/01/10 04:53:50;;;;;;;19.92;10.15;;;;;;;2.30;88.38;102031.91;4971825;28;20058;-47
2021/01/10 04:56:20;;;;;;;17.10;9.98;;;;;;;2.30;88.42;102027.25;4971414;28;20038;-48
2021/01/10 04:58:54;;;;;;;17.90;10.02;;;;;;;2.30;88.97;102037.38;4985943;28;20093;-47
2021/01/10 05:01:23;;;;;;;16.20;9.40;;;;;;;2.31;88.24;102026.19;5004845;28;20120;-49
2021/01/10 05:03:56;;;;;;;16.85;9.27;;;;;;;2.32;88.59;102024.28;5010439;28;20034;-47
2021/01/10 05:06:23;;;;;;;18.33;10.00;;;;;;;2.32;88.90;102029.75;5010758;28;20042;-47
2021/01/10 05:08:49;;;;;;;19.65;10.60;;;;;;;2.32;88.45;102030.56;5004019;28;20093;-49
2021/01/10 05:11:16;;;;;;;16.38;9.70;;;;;;;2.33;88.79;102026.75;5008347;28;20065;-48
2021/01/10 05:13:43;;;;;;;19.77;10.98;;;;;;;2.35;88.23;102034.69;5009346;28;20519;-50
2021/01/10 05:16:20;;;;;;;21.13;11.02;;;;;;;2.35;88.31;102032.78;5002062;28;20105;-47
2021/01/10 05:18:54;;;;;;;21.10;12.07;;;;;;;2.36;88.68;102028.97;4990521;28;20436;-49
2021/01/10 05:21:23;;;;;;;18.15;10.68;;;;;;;2.38;88.43;102034.97;4991839;28;20061;-49
2021/01/10 05:23:53;;;;;;;17.83;10.10;;;;;;;2.40;88.28;102034.75;4994147;28;20054;-50
2021/01/10 05:26:20;;;;;;;16.55;10.82;;;;;;;2.40;88.53;102034.75;4993794;28;20077;-50
2021/01/10 05:28:49;;;;;;;23.25;11.70;;;;;;;2.41;88.07;102034.47;4992936;28;20109;-53
2021/01/10 05:31:41;;;;;;;21.75;11.18;;;;;;;2.40;88.79;102032.00;4963129;28;20567;-53
2021/01/10 05:34:15;;;;;;;21.83;11.48;;;;;;;2.41;88.67;102028.16;4993845;28;20133;-50
2021/01/10 05:36:42;;;;;;;24.15;12.23;;;;;;;2.41;88.64;102020.81;4994000;28;20065;-48
2021/01/10 05:39:16;;;;;;;17.58;10.95;;;;;;;2.42;88.64;102018.91;4993587;28;20088;-50
2021/01/10 05:41:49;;;;;;;19.75;11.45;;;;;;;2.42;88.68;102021.63;4993876;28;20069;-51
2021/01/10 05:44:16;;;;;;;23.42;12.38;;;;;;;2.43;88.78;102012.38;4992671;28;20088;-49
2021/01/10 05:46:42;;;;;;;21.83;11.02;;;;;;;2.42;88.70;102027.09;4993637;28;20093;-51
2021/01/10 05:49:20;;;;;;;17.50;10.48;;;;;;;2.43;88.86;102026.03;4993809;28;20057;-51
2021/01/10 05:51:47;;;;;;;22.10;11.90;;;;;;;2.44;88.75;102014.00;4993675;28;20444;-53
2021/01/10 05:54:33;;;;;;;20.30;11.38;;;;;;;2.42;89.06;102021.63;4993964;28;20452;-48
2021/01/10 05:57:02;;;;;;;19.67;11.15;;;;;;;2.44;88.58;102020.28;4992748;28;20046;-53
2021/01/10 05:59:30;;;;;;;19.42;10.95;;;;;;;2.43;88.79;102020.56;4969773;28;700227;-51
2021/01/10 06:01:58;;;;;;;20.40;11.23;;;;;;;2.43;88.54;102026.03;4977961;28;20504;-48
2021/01/10 06:04:24;;;;;;;22.05;10.75;;;;;;;2.45;88.60;102032.06;4994416;28;20039;-50
2021/01/10 06:06:51;;;;;;;16.70;10.10;;;;;;;2.46;88.90;102020.03;4994495;28;20043;-48
2021/01/10 06:09:17;;;;;;;22.70;11.00;;;;;;;2.46;89.00;102017.31;4995702;28;20390;-49
2021/01/10 06:11:43;;;;;;;21.98;10.93;;;;;;;2.46;88.78;102014.56;5014208;28;20474;-48
2021/01/10 06:14:23;;;;;;;21.70;10.75;;;;;;;2.47;88.85;102021.69;5007100;28;20046;-52
2021/01/10 06:16:57;;;;;;;17.90;10.35;;;;;;;2.48;88.72;102028.81;4978757;28;20051;-50
2021/01/10 06:19:28;;;;;;;17.77;9.82;;;;;;;2.49;88.97;102024.97;5009412;28;20404;-49
2021/01/10 06:21:59;;;;;;;17.98;9.50;;;;;;;2.49;88.87;102019.50;4994201;28;20053;-50
2021/01/10 06:24:32;;;;;;;17.25;9.60;;;;;;;2.51;89.15;102020.09;4976802;28;20042;-49
2021/01/10 06:27:05;;;;;;;21.10;9.63;;;;;;;2.53;88.79;102025.28;4994199;28;20050;-49
2021/01/10 06:29:41;;;;;;;19.35;10.32;;;;;;;2.54;88.68;102022.31;4993899;28;20050;-47
2021/01/10 06:32:10;;;;;;;16.85;10.07;;;;;;;2.55;88.85;102021.19;4976291;28;20144;-54
2021/01/10 06:34:41;;;;;;;20.10;10.05;;;;;;;2.59;88.88;102029.72;4980372;28;20047;-50
2021/01/10 06:37:09;;;;;;;19.67;10.20;;;;;;;2.59;88.79;102030.53;4974401;28;20078;-50
2021/01/10 06:39:44;;;;;;;21.55;10.40;;;;;;;2.59;88.69;102029.72;4974713;28;20039;-51
2021/01/10 06:42:12;;;;;;;14.77;8.13;;;;;;;2.60;88.78;102032.16;4957251;28;20046;-51
2021/01/10 06:44:41;;;;;;;15.15;9.10;;;;;;;2.62;88.74;102037.41;4982567;28;20094;-50
2021/01/10 06:47:15;;;;;;;17.02;9.60;;;;;;;2.63;88.91;102036.28;4993433;28;20046;-52
2021/01/10 06:49:42;;;;;;;16.20;9.55;;;;;;;2.64;88.78;102027.00;4993971;28;20105;-50
2021/01/10 06:52:09;;;;;;;18.00;9.98;;;;;;;2.66;88.95;102030.31;4993580;28;20086;-50
2021/01/10 06:54:47;;;;;;;20.67;9.52;;;;;;;2.65;88.79;102026.75;4993633;28;20818;-49
2021/01/10 06:57:14;;;;;;;18.23;9.30;;;;;;;2.68;88.96;102025.41;4993480;28;20451;-48
2021/01/10 07:00:09;;;;;;;15.32;9.25;;;;;;;2.68;89.10;102011.72;4995449;28;20070;-51
2021/01/10 07:03:07;;;;;;;14.80;8.35;;;;;;;2.70;88.94;102025.97;5003690;28;20042;-52
2021/01/10 07:05:55;;;;;;;17.10;9.65;;;;;;;2.70;89.01;102024.03;4993584;28;20117;-51
2021/01/10 07:08:54;;;;;;;19.27;9.32;;;;;;;2.72;88.81;102019.16;4993301;28;20054;-52
2021/01/10 07:11:20;;;;;;;14.20;8.70;;;;;;;2.74;88.64;102006.03;5008562;28;20096;-48
2021/01/10 07:13:48;;;;;;;13.77;8.45;;;;;;;2.75;88.96;102006.88;4991577;28;20041;-50
2021/01/10 07:16:25;;;;;;;20.15;8.57;;;;;;;2.76;88.76;102014.81;4993185;28;20505;-49
2021/01/10 07:18:59;;;;;;;15.63;8.48;;;;;;;2.78;88.96;102015.34;4993470;28;20046;-50
2021/01/10 07:21:38;;;;;;;19.13;8.73;;;;;;;2.78;89.44;102012.63;4975782;28;20069;-50
2021/01/10 07:24:13;;;;;;;15.75;8.13;;;;;;;2.81;89.44;102023.03;4988169;28;20099;-52
2021/01/10 07:26:41;;;;;;;16.13;8.75;;;;;;;2.82;89.15;102024.69;4973455;28;20485;-49
2021/01/10 07:29:32;;;;;;;16.10;8.25;;;;;;;2.83;89.25;102028.25;4978885;28;20082;-49
2021/01/10 07:32:13;;;;;;;17.80;9.07;;;;;;;2.83;89.48;102018.13;4975300;28;20050;-49
2021/01/10 07:34:46;;;;;;;19.23;9.15;;;;;;;2.85;89.41;102029.66;4975614;28;20046;-49
2021/01/10 07:37:15;;;;;;;;;;;;;;;2.82;89.57;102024.69;4992203;28;20046;-52
2021/01/10 07:40:04;;;;;;;15.88;9.13;;;;;;;2.83;89.62;102031.81;4992915;28;20295;-49
2021/01/10 07:42:33;;;;;;;18.15;9.40;;;;;;;2.83;89.36;102009.91;4992693;28;20121;-50
2021/01/10 07:45:19;;;;;;;17.23;9.60;;;;;;;2.82;89.40;102008.28;4991622;28;20051;-51
2021/01/10 07:47:54;;;;;;;18.80;9.30;;;;;;;2.84;89.92;102010.75;4992092;28;20046;-51
2021/01/10 07:50:23;;;;;;;16.60;9.90;;;;;;;2.83;89.25;102026.34;4992820;28;20045;-49
2021/01/10 07:52:50;;;;;;;22.60;10.32;;;;;;;2.82;89.70;102013.75;4991815;28;20038;-48
2021/01/10 07:55:19;;;;;;;23.65;10.27;;;;;;;2.83;89.50;102015.38;4992711;28;20093;-47
2021/01/10 07:57:50;;;;;;;26.52;11.40;;;;;;;2.83;89.41;102014.59;4971636;28;20059;-48
2021/01/10 08:00:28;;;;;;;25.65;11.75;;;;;;;2.82;89.76;102024.69;4977788;28;20042;-53
2021/01/10 08:02:54;;;;;;;32.65;11.48;;;;;;;2.81;89.67;102031.25;4952544;29;20078;-51
2021/01/10 08:05:23;;;;;;;30.90;11.32;;;;;;;2.83;89.73;102031.00;4953577;29;20082;-54
2021/01/10 08:07:54;;;;;;;29.88;11.90;;;;;;;2.82;90.16;102023.88;4936112;29;20054;-50
2021/01/10 08:10:21;;;;;;;25.95;10.98;;;;;;;2.83;89.93;102026.34;4973342;28;20529;-51
2021/01/10 08:12:48;;;;;;;24.15;10.52;;;;;;;2.83;89.63;102015.38;4991123;28;20046;-49
2021/01/10 08:15:15;;;;;;;21.00;10.70;;;;;;;2.84;89.85;102022.53;4959430;28;20073;-52
2021/01/10 08:17:41;;;;;;;23.40;10.38;;;;;;;2.83;89.57;102028.25;4972356;28;20070;-51
2021/01/10 08:20:09;;;;;;;28.58;8.93;;;;;;;2.82;90.11;102019.22;4972771;28;20074;-52
2021/01/10 08:22:37;;;;;;;23.23;9.75;;;;;;;2.83;90.02;102020.84;4973010;28;20055;-50
2021/01/10 08:25:07;;;;;;;21.35;9.77;;;;;;;2.83;90.03;102011.84;4972805;28;20043;-51
2021/01/10 08:27:33;;;;;;;26.85;9.95;;;;;;;2.82;89.86;102019.22;4972747;28;20066;-51
2021/01/10 08:30:00;;;;;;;22.80;9.75;;;;;;;2.81;89.81;102027.69;4966821;28;20042;-51
2021/01/10 08:32:28;;;;;;;20.65;10.40;;;;;;;2.82;89.84;102012.94;4953911;28;20488;-53
2021/01/10 08:35:01;;;;;;;26.27;10.07;;;;;;;2.80;89.51;102005.00;4971407;28;20101;-53
2021/01/10 08:37:28;;;;;;;27.13;9.52;;;;;;;2.82;89.69;102008.28;4972292;28;20046;-50
2021/01/10 08:40:02;;;;;;;22.73;9.07;;;;;;;2.80;90.02;102021.41;4970659;28;20059;-54
2021/01/10 08:42:30;;;;;;;18.73;7.82;;;;;;;2.78;90.42;102036.44;4955173;28;20043;-55
2021/01/10 08:45:21;;;;;;;32.08;10.10;;;;;;;2.77;90.23;102032.88;4954727;28;20114;-48
2021/01/10 08:47:48;;;;;;;22.95;9.05;;;;;;;2.79;90.09;102024.38;4970935;28;20050;-51
2021/01/10 08:50:16;;;;;;;19.67;8.90;;;;;;;2.79;89.79;102030.69;4971682;28;20054;-52
2021/01/10 08:52:57;;;;;;;20.67;8.98;;;;;;;2.79;89.97;102022.47;4979169;28;20094;-50
2021/01/10 08:55:36;;;;;;;16.55;8.07;;;;;;;2.78;89.93;102020.81;4990475;28;20056;-52
2021/01/10 08:58:05;;;;;;;19.48;8.68;;;;;;;2.80;89.74;102021.41;4991860;28;20042;-54
2021/01/10 09:00:31;;;;;;;21.08;8.23;;;;;;;2.80;89.94;102026.88;4995583;28;20237;-52
2021/01/10 09:03:17;;;;;;;24.70;9.75;;;;;;;2.78;90.34;102030.97;4995887;28;20077;-51
2021/01/10 09:05:47;;;;;;;19.08;8.73;;;;;;;2.79;90.12;102041.63;4994984;28;20141;-50
2021/01/10 09:08:40;;;;;;;14.70;8.80;;;;;;;2.77;90.43;102043.81;4996291;28;20034;-50
2021/01/10 09:11:13;;;;;;;20.42;9.15;;;;;;;2.77;89.86;102043.81;5015215;28;20450;-52
2021/01/10 09:13:47;;;;;;;18.20;8.80;;;;;;;2.78;90.03;102037.22;5015233;28;20104;-47
2021/01/10 09:16:17;;;;;;;19.02;8.95;;;;;;;2.78;89.90;102039.97;5014873;28;20121;-50
2021/01/10 09:18:47;;;;;;;16.17;8.05;;;;;;;2.77;90.20;102046.53;5014905;28;20042;-48
2021/01/10 09:21:15;;;;;;;22.52;9.07;;;;;;;2.79;89.88;102046.25;4978409;28;20038;-49
2021/01/10 09:23:51;;;;;;;20.92;8.25;;;;;;;2.77;90.14;102059.38;4995117;28;20125;-49
2021/01/10 09:26:24;;;;;;;16.35;7.93;;;;;;;2.77;90.59;102054.75;4995474;28;20035;-50
2021/01/10 09:28:51;;;;;;;16.98;8.88;;;;;;;2.79;89.94;102057.22;4995133;28;20408;-54
2021/01/10 09:31:17;;;;;;;17.38;8.77;;;;;;;2.79;90.09;102058.03;5013830;28;20123;-48
2021/01/10 09:33:44;;;;;;;18.67;9.57;;;;;;;2.81;89.69;102050.38;5013364;28;20377;-49
2021/01/10 09:36:17;;;;;;;18.42;8.85;;;;;;;2.83;90.04;102047.41;4983292;28;20800;-53
2021/01/10 09:38:54;;;;;;;18.17;8.75;;;;;;;2.84;89.86;102059.97;4992188;28;20042;-51
2021/01/10 09:41:21;;;;;;;17.08;8.27;;;;;;;2.86;89.86;102044.16;4992806;28;20450;-50
2021/01/10 09:43:53;;;;;;;12.10;7.50;;;;;;;2.82;90.42;102060.25;4992572;28;20081;-52
2021/01/10 09:46:33;;;;;;;16.42;8.55;;;;;;;2.84;90.28;102052.59;4992452;28;20129;-50
2021/01/10 09:49:05;;;;;;;15.27;7.25;;;;;;;2.84;89.93;102066.28;4973590;28;20051;-51
2021/01/10 09:51:50;;;;;;;17.02;6.95;;;;;;;2.88;89.99;102061.13;4973303;28;20039;-51
2021/01/10 09:54:18;;;;;;;11.57;6.45;;;;;;;2.91;90.20;102060.59;4968428;28;20042;-53
2021/01/10 09:56:57;;;;;;;20.42;11.98;;;;;;;2.95;90.12;102058.97;4974004;28;20050;-50
2021/01/10 09:59:46;;;;;;;14.25;6.72;;;;;;;2.97;90.08;102054.88;4991374;28;20086;-50
2021/01/10 10:02:14;;;;;;;11.80;6.50;;;;;;;3.00;90.07;102062.56;4973557;28;20050;-51
2021/01/10 10:04:44;;;;;;;9.63;6.45;;;;;;;3.01;90.22;102056.03;4972950;28;20053;-48
2021/01/10 10:07:11;;;;;;;10.07;6.18;;;;;;;3.03;90.02;102072.16;4984697;28;20050;-49
2021/01/10 10:09:51;;;;;;;20.88;7.18;;;;;;;3.02;90.25;102065.03;4980349;28;20073;-50
2021/01/10 10:12:22;;;;;;;15.18;6.57;;;;;;;3.05;90.31;102068.06;5012124;28;20128;-53
2021/01/10 10:14:54;;;;;;;13.85;6.18;;;;;;;3.07;89.89;102068.63;4998699;28;20078;-54
2021/01/10 10:17:21;;;;;;;26.92;6.90;;;;;;;3.11;90.01;102070.84;4980184;28;20458;-54
2021/01/10 10:19:48;;;;;;;12.82;6.18;;;;;;;3.14;89.89;102073.06;5010607;28;20538;-51
2021/01/10 10:22:28;;;;;;;9.23;6.15;;;;;;;3.15;90.08;102077.47;5007943;28;20045;-55
2021/01/10 10:24:56;;;;;;;11.88;7.25;;;;;;;3.17;89.69;102069.81;4991079;28;20097;-52
2021/01/10 10:27:29;;;;;;;16.80;8.73;;;;;;;3.19;89.73;102070.34;4990081;28;20046;-52
2021/01/10 10:29:55;;;;;;;;;;;;;;;3.18;90.19;102071.47;4990104;28;20134;-53
2021/01/10 10:32:22;;;;;;;10.88;7.05;;;;;;;3.20;89.90;102072.00;4990202;28;19957;-55
2021/01/10 10:34:53;;;;;;;12.93;7.20;;;;;;;3.22;89.95;102067.09;4992617;28;20050;-50
2021/01/10 10:37:20;;;;;;;11.13;6.28;;;;;;;3.25;89.53;102064.66;4990420;28;20456;-48
2021/01/10 10:39:47;;;;;;;9.85;6.28;;;;;;;3.27;89.63;102069.88;4991755;28;20496;-51
2021/01/10 10:42:16;;;;;;;11.63;5.47;;;;;;;3.29;89.69;102073.16;4992083;28;20078;-53
2021/01/10 10:44:43;;;;;;;13.30;6.72;;;;;;;3.32;90.01;102067.16;4992493;28;20101;-52
2021/01/10 10:47:12;;;;;;;13.25;6.75;;;;;;;3.34;89.87;102070.44;4990799;28;20046;-50
2021/01/10 10:49:38;;;;;;;11.80;7.10;;;;;;;3.39;89.85;102067.75;4962297;28;20043;-48
2021/01/10 10:52:12;;;;;;;24.73;7.93;;;;;;;3.42;89.67;102062.56;4972384;28;20404;-52
2021/01/10 10:54:38;;;;;;;13.75;7.68;;;;;;;3.46;89.66;102062.88;4977540;28;20050;-52
2021/01/10 10:57:09;;;;;;;10.48;6.90;;;;;;;3.47;89.97;102054.38;4991687;28;20042;-52
2021/01/10 10:59:37;;;;;;;13.48;8.07;;;;;;;3.51;89.79;102062.88;4991850;28;20052;-51
2021/01/10 11:02:03;;;;;;;11.00;7.03;;;;;;;3.57;89.83;102061.84;4972017;28;20050;-50
2021/01/10 11:04:30;;;;;;;13.45;6.82;;;;;;;3.58;90.02;102056.06;4970771;28;20049;-51
2021/01/10 11:06:56;;;;;;;13.18;6.70;;;;;;;3.64;89.94;102055.00;4986642;28;20101;-51
2021/01/10 11:09:24;;;;;;;10.93;6.25;;;;;;;3.69;89.67;102056.94;4993957;28;20065;-51
2021/01/10 11:11:50;;;;;;;11.50;6.90;;;;;;;3.75;89.88;102047.66;5011148;28;20046;-52
2021/01/10 11:14:19;;;;;;;15.38;7.40;;;;;;;3.80;89.95;102042.19;5007489;28;20046;-52
2021/01/10 11:16:50;;;;;;;13.60;7.07;;;;;;;3.87;89.54;102053.72;4991251;28;20044;-52
2021/01/10 11:19:17;;;;;;;11.88;7.10;;;;;;;3.86;89.53;102054.84;4990499;28;20054;-52
2021/01/10 11:21:46;;;;;;;9.63;5.85;;;;;;;3.87;89.27;102045.50;4990423;28;20078;-53
2021/01/10 11:24:13;;;;;;;16.58;7.45;;;;;;;3.89;89.37;102051.53;4990589;28;20141;-52
2021/01/10 11:26:41;;;;;;;17.45;7.03;;;;;;;3.90;89.36;102042.22;4990726;28;20058;-53
2021/01/10 11:29:08;;;;;;;13.25;7.90;;;;;;;3.88;89.37;102038.94;4990611;28;20106;-51
2021/01/10 11:31:36;;;;;;;12.73;6.80;;;;;;;3.87;89.35;102042.75;4990519;28;20045;-53
2021/01/10 11:34:03;;;;;;;10.68;6.38;;;;;;;3.90;89.49;102038.66;4990249;28;20062;-52
2021/01/10 11:36:30;;;;;;;11.13;6.72;;;;;;;3.91;89.17;102027.44;4990229;28;20042;-49